Billings, MT

10:57 AM MDT on August 30, 2014 (GMT -0600)
Billings Logan International | Change Station
CLOSE
Current Station
Airport
Location: Billings,
Elevation: 3570 ft
Nearby Weather Stations

Elev 3570 ft 45.81 °N, 108.54 °W | Updated 4 minutes ago

Mostly Cloudy
Mostly Cloudy
64 °F
Feels Like 64 °F
N
8
Wind Variable Wind from NNE

Today
High -- | Low -- °F
--% Chance of Precip.
Yesterday
High -- | Low -- °F
Precip. -- in
6:32 AM 7:55 PM
Waxing Crescent, 23% visible
Pressure 29.78 in
Visibility 10.0 miles
Clouds Few 5500 ft
Scattered Clouds 9000 ft
Mostly Cloudy 11000 ft
Dew Point 52 °F
Humidity 65%
Rainfall 0.02 in
Snow Depth Not available.
UV 3 out of 12
Pollen 7.70 out of 12
Air Quality Not available.
Flu Activity Not available.
METAR KBIL 301653Z 03007KT 10SM FEW055 SCT090 BKN110 18/11 A2984 RMK AO2 RAE21 SLP082 SHRA DSNT N S-SW P0000 T01780111

More Conditions Fewer Conditions

Pressure 29.78 in
Visibility 10.0 miles
Clouds Few 5500 ft
Scattered Clouds 9000 ft
Mostly Cloudy 11000 ft
Dew Point 52 °F
Humidity 65%
Rainfall 0.02 in
Snow Depth Not available.
UV 3 out of 12
Pollen 7.70 out of 12
Air Quality Not available.
Flu Activity Not available.
METAR KBIL 301653Z 03007KT 10SM FEW055 SCT090 BKN110 18/11 A2984 RMK AO2 RAE21 SLP082 SHRA DSNT N S-SW P0000 T01780111

More Conditions Fewer Conditions

10-Day Weather Forecast

Almanac

Astronomy

Aug. 30, 2014 Rise Set
Actual Time 6:32 AM MDT 7:55 PM MDT
Civil Twilight 6:01 AM MDT 8:26 PM MDT
Nautical Twilight 5:24 AM MDT 9:03 PM MDT
Astronomical Twilight 4:44 AM MDT 9:43 PM MDT
Moon 11:40 AM MDT 10:14 PM MDT
Length of Visible Light 14h 24m
Length of Day
13h 22m
Tomorrow will be 3m 6s shorter.
Waxing Crescent, 23% of the Moon is Illuminated
Today
Waxing Crescent
Sep 2
First Quarter
Sep 8
Full
Sep 15
Last Quarter
Sep 24
New

Today's Extremes

State Highs State Lows

Community

WunderPhotos

Upload Photos

1,748,562 photos uploaded!

WunderBlogs® & News

Nearby

Snow Depth

Station Depth Elevation
Cole Creek 0 in 7850 ft
Placer Basin 0 in 8830 ft
Crystal Lake 1 in 6050 ft
White Mill 2 in 8700 ft
Fisher Creek 0 in 9100 ft

Earthquake Activity

City Distance Mag. Time & Date
No recent earthquake activity has been reported nearby.
Minimum magnitude displayed is 2.5.

Coastal Water Temperatures

Place Temperature
No Stations Reporting

Nearby Weather Stations